sensor_id;sensor_type;location;lat;lon;timestamp;temperature;humidity
10873;DHT22;34586;53.616;10.032;2023-11-22T00:01:11;2.90;99.90
10873;DHT22;34586;53.616;10.032;2023-11-22T00:03:37;2.90;99.90
10873;DHT22;34586;53.616;10.032;2023-11-22T00:06:02;2.80;99.90
10873;DHT22;34586;53.616;10.032;2023-11-22T00:08:28;2.80;99.90
10873;DHT22;34586;53.616;10.032;2023-11-22T00:10:55;2.80;99.90
10873;DHT22;34586;53.616;10.032;2023-11-22T00:13:20;2.80;99.90
10873;DHT22;34586;53.616;10.032;2023-11-22T00:15:46;2.70;99.90
10873;DHT22;34586;53.616;10.032;2023-11-22T00:18:11;2.70;99.90
10873;DHT22;34586;53.616;10.032;2023-11-22T00:20:37;2.70;99.90
10873;DHT22;34586;53.616;10.032;2023-11-22T00:23:02;2.70;99.90
10873;DHT22;34586;53.616;10.032;2023-11-22T00:25:31;2.70;99.90
10873;DHT22;34586;53.616;10.032;2023-11-22T00:27:58;2.60;99.90
10873;DHT22;34586;53.616;10.032;2023-11-22T00:30:23;2.60;99.90
10873;DHT22;34586;53.616;10.032;2023-11-22T00:32:49;2.50;99.90
10873;DHT22;34586;53.616;10.032;2023-11-22T00:35:14;2.50;99.90
10873;DHT22;34586;53.616;10.032;2023-11-22T00:37:40;2.40;99.90
10873;DHT22;34586;53.616;10.032;2023-11-22T00:40:06;2.40;99.90
10873;DHT22;34586;53.616;10.032;2023-11-22T00:42:39;2.30;99.90
10873;DHT22;34586;53.616;10.032;2023-11-22T00:45:07;2.30;99.90
10873;DHT22;34586;53.616;10.032;2023-11-22T00:47:33;2.20;99.90
10873;DHT22;34586;53.616;10.032;2023-11-22T00:49:59;2.20;99.90
10873;DHT22;34586;53.616;10.032;2023-11-22T00:52:25;2.20;99.90
10873;DHT22;34586;53.616;10.032;2023-11-22T00:54:50;2.20;99.90
10873;DHT22;34586;53.616;10.032;2023-11-22T00:57:16;2.20;99.90
10873;DHT22;34586;53.616;10.032;2023-11-22T00:59:42;2.10;99.90
10873;DHT22;34586;53.616;10.032;2023-11-22T01:02:08;2.10;99.90
10873;DHT22;34586;53.616;10.032;2023-11-22T01:04:34;2.00;99.90
10873;DHT22;34586;53.616;10.032;2023-11-22T01:07:02;2.00;99.90
10873;DHT22;34586;53.616;10.032;2023-11-22T01:09:29;2.10;99.90
10873;DHT22;34586;53.616;10.032;2023-11-22T01:11:55;2.00;99.90
10873;DHT22;34586;53.616;10.032;2023-11-22T01:14:21;2.00;99.90
10873;DHT22;34586;53.616;10.032;2023-11-22T01:16:47;1.90;99.90
10873;DHT22;34586;53.616;10.032;2023-11-22T01:19:13;1.90;99.90
10873;DHT22;34586;53.616;10.032;2023-11-22T01:21:39;1.90;99.90
10873;DHT22;34586;53.616;10.032;2023-11-22T01:24:04;1.80;99.90
10873;DHT22;34586;53.616;10.032;2023-11-22T01:26:30;1.80;99.90
10873;DHT22;34586;53.616;10.032;2023-11-22T01:28:56;1.80;99.90
10873;DHT22;34586;53.616;10.032;2023-11-22T01:31:21;1.70;99.90
10873;DHT22;34586;53.616;10.032;2023-11-22T01:33:48;1.70;99.90
10873;DHT22;34586;53.616;10.032;2023-11-22T01:36:13;1.70;99.90
10873;DHT22;34586;53.616;10.032;2023-11-22T01:38:40;1.70;99.90
10873;DHT22;34586;53.616;10.032;2023-11-22T01:41:06;1.70;99.90
10873;DHT22;34586;53.616;10.032;2023-11-22T01:43:32;1.70;99.90
10873;DHT22;34586;53.616;10.032;2023-11-22T01:45:58;1.70;99.90
10873;DHT22;34586;53.616;10.032;2023-11-22T01:48:24;1.70;99.90
10873;DHT22;34586;53.616;10.032;2023-11-22T01:50:50;1.70;99.90
10873;DHT22;34586;53.616;10.032;2023-11-22T01:53:16;1.10;99.90
10873;DHT22;34586;53.616;10.032;2023-11-22T01:55:43;1.70;99.90
10873;DHT22;34586;53.616;10.032;2023-11-22T01:58:09;1.70;99.90
10873;DHT22;34586;53.616;10.032;2023-11-22T02:00:45;1.80;99.90
10873;DHT22;34586;53.616;10.032;2023-11-22T02:03:13;1.70;99.90
10873;DHT22;34586;53.616;10.032;2023-11-22T02:05:41;1.70;99.90
10873;DHT22;34586;53.616;10.032;2023-11-22T02:08:11;1.80;99.90
10873;DHT22;34586;53.616;10.032;2023-11-22T02:10:37;1.80;99.90
10873;DHT22;34586;53.616;10.032;2023-11-22T02:13:06;1.80;99.90
10873;DHT22;34586;53.616;10.032;2023-11-22T02:15:35;1.80;99.90
10873;DHT22;34586;53.616;10.032;2023-11-22T02:18:02;1.80;99.90
10873;DHT22;34586;53.616;10.032;2023-11-22T02:20:28;1.70;99.90
10873;DHT22;34586;53.616;10.032;2023-11-22T02:22:54;1.80;99.90
10873;DHT22;34586;53.616;10.032;2023-11-22T02:25:20;1.80;99.90
10873;DHT22;34586;53.616;10.032;2023-11-22T02:27:46;1.80;99.90
10873;DHT22;34586;53.616;10.032;2023-11-22T02:30:12;1.80;99.90
10873;DHT22;34586;53.616;10.032;2023-11-22T02:32:37;1.70;99.90
10873;DHT22;34586;53.616;10.032;2023-11-22T02:35:05;1.60;99.90
10873;DHT22;34586;53.616;10.032;2023-11-22T02:37:33;1.70;99.90
10873;DHT22;34586;53.616;10.032;2023-11-22T02:40:16;1.60;99.90
10873;DHT22;34586;53.616;10.032;2023-11-22T02:42:43;1.60;99.90
10873;DHT22;34586;53.616;10.032;2023-11-22T02:45:09;1.60;99.90
10873;DHT22;34586;53.616;10.032;2023-11-22T02:47:35;1.50;99.90
10873;DHT22;34586;53.616;10.032;2023-11-22T02:50:02;1.50;99.90
10873;DHT22;34586;53.616;10.032;2023-11-22T02:52:31;1.50;99.90
10873;DHT22;34586;53.616;10.032;2023-11-22T02:54:56;1.40;99.90
10873;DHT22;34586;53.616;10.032;2023-11-22T02:57:22;1.40;99.90
10873;DHT22;34586;53.616;10.032;2023-11-22T02:59:47;1.40;99.90
10873;DHT22;34586;53.616;10.032;2023-11-22T03:02:13;1.40;99.90
10873;DHT22;34586;53.616;10.032;2023-11-22T03:04:43;1.40;99.90
10873;DHT22;34586;53.616;10.032;2023-11-22T03:07:09;1.40;99.90
10873;DHT22;34586;53.616;10.032;2023-11-22T03:09:35;1.40;99.90
10873;DHT22;34586;53.616;10.032;2023-11-22T03:12:02;1.40;99.90
10873;DHT22;34586;53.616;10.032;2023-11-22T03:14:28;1.40;99.90
10873;DHT22;34586;53.616;10.032;2023-11-22T03:16:54;1.50;99.90
10873;DHT22;34586;53.616;10.032;2023-11-22T03:19:20;1.50;99.90
10873;DHT22;34586;53.616;10.032;2023-11-22T03:21:46;1.50;99.90
10873;DHT22;34586;53.616;10.032;2023-11-22T03:24:12;1.50;99.90
10873;DHT22;34586;53.616;10.032;2023-11-22T03:26:38;1.40;99.90
10873;DHT22;34586;53.616;10.032;2023-11-22T03:29:04;1.30;99.90
10873;DHT22;34586;53.616;10.032;2023-11-22T03:31:30;1.40;99.90
10873;DHT22;34586;53.616;10.032;2023-11-22T03:33:58;1.40;99.90
10873;DHT22;34586;53.616;10.032;2023-11-22T03:36:24;1.40;99.90
10873;DHT22;34586;53.616;10.032;2023-11-22T03:38:50;1.40;99.90
10873;DHT22;34586;53.616;10.032;2023-11-22T03:41:16;1.30;99.90
10873;DHT22;34586;53.616;10.032;2023-11-22T03:43:44;1.30;99.90
10873;DHT22;34586;53.616;10.032;2023-11-22T03:46:10;1.30;99.90
10873;DHT22;34586;53.616;10.032;2023-11-22T03:48:37;1.30;99.90
10873;DHT22;34586;53.616;10.032;2023-11-22T03:51:02;1.30;99.90
10873;DHT22;34586;53.616;10.032;2023-11-22T03:53:28;1.30;99.90
10873;DHT22;34586;53.616;10.032;2023-11-22T03:55:54;1.30;99.90
10873;DHT22;34586;53.616;10.032;2023-11-22T03:58:19;1.30;99.90
10873;DHT22;34586;53.616;10.032;2023-11-22T04:00:45;1.30;99.90
10873;DHT22;34586;53.616;10.032;2023-11-22T04:03:10;1.30;99.90
10873;DHT22;34586;53.616;10.032;2023-11-22T04:05:36;1.30;99.90
10873;DHT22;34586;53.616;10.032;2023-11-22T04:08:01;1.20;99.90
10873;DHT22;34586;53.616;10.032;2023-11-22T04:10:27;1.30;99.90
10873;DHT22;34586;53.616;10.032;2023-11-22T04:12:53;1.30;99.90
10873;DHT22;34586;53.616;10.032;2023-11-22T04:15:19;1.30;99.90
10873;DHT22;34586;53.616;10.032;2023-11-22T04:17:44;1.20;99.90
10873;DHT22;34586;53.616;10.032;2023-11-22T04:20:10;1.20;99.90
10873;DHT22;34586;53.616;10.032;2023-11-22T04:22:39;1.20;99.90
10873;DHT22;34586;53.616;10.032;2023-11-22T04:25:05;1.20;99.90
10873;DHT22;34586;53.616;10.032;2023-11-22T04:27:32;1.20;99.90
10873;DHT22;34586;53.616;10.032;2023-11-22T04:29:58;1.20;99.90
10873;DHT22;34586;53.616;10.032;2023-11-22T04:32:24;1.20;99.90
10873;DHT22;34586;53.616;10.032;2023-11-22T04:34:50;1.10;99.90
10873;DHT22;34586;53.616;10.032;2023-11-22T04:37:15;1.10;99.90
10873;DHT22;34586;53.616;10.032;2023-11-22T04:39:41;1.10;99.90
10873;DHT22;34586;53.616;10.032;2023-11-22T04:42:06;1.10;99.90
10873;DHT22;34586;53.616;10.032;2023-11-22T04:44:32;1.10;99.90
10873;DHT22;34586;53.616;10.032;2023-11-22T04:46:58;1.10;99.90
10873;DHT22;34586;53.616;10.032;2023-11-22T04:49:26;1.10;99.90
10873;DHT22;34586;53.616;10.032;2023-11-22T04:51:52;1.10;99.90
10873;DHT22;34586;53.616;10.032;2023-11-22T04:54:18;1.20;99.90
10873;DHT22;34586;53.616;10.032;2023-11-22T04:56:43;1.10;99.90
10873;DHT22;34586;53.616;10.032;2023-11-22T04:59:09;1.20;99.90
10873;DHT22;34586;53.616;10.032;2023-11-22T05:01:35;1.10;99.90
10873;DHT22;34586;53.616;10.032;2023-11-22T05:04:01;1.20;99.90
10873;DHT22;34586;53.616;10.032;2023-11-22T05:06:27;1.30;99.90
10873;DHT22;34586;53.616;10.032;2023-11-22T05:08:54;1.30;99.90
10873;DHT22;34586;53.616;10.032;2023-11-22T05:11:21;1.20;99.90
10873;DHT22;34586;53.616;10.032;2023-11-22T05:13:47;1.20;99.90
10873;DHT22;34586;53.616;10.032;2023-11-22T05:16:12;1.10;99.90
10873;DHT22;34586;53.616;10.032;2023-11-22T05:18:38;1.10;99.90
10873;DHT22;34586;53.616;10.032;2023-11-22T05:21:04;1.10;99.90
10873;DHT22;34586;53.616;10.032;2023-11-22T05:23:30;1.10;99.90
10873;DHT22;34586;53.616;10.032;2023-11-22T05:25:57;1.10;99.90
10873;DHT22;34586;53.616;10.032;2023-11-22T05:28:25;1.00;99.90
10873;DHT22;34586;53.616;10.032;2023-11-22T05:30:50;1.00;99.90
10873;DHT22;34586;53.616;10.032;2023-11-22T05:33:16;1.00;99.90
10873;DHT22;34586;53.616;10.032;2023-11-22T05:35:42;1.00;99.90
10873;DHT22;34586;53.616;10.032;2023-11-22T05:38:08;1.00;99.90
10873;DHT22;34586;53.616;10.032;2023-11-22T05:40:34;0.90;99.90
10873;DHT22;34586;53.616;10.032;2023-11-22T05:42:59;0.90;99.90
10873;DHT22;34586;53.616;10.032;2023-11-22T05:45:25;0.90;99.90
10873;DHT22;34586;53.616;10.032;2023-11-22T05:47:51;2.30;99.90
10873;DHT22;34586;53.616;10.032;2023-11-22T05:50:16;0.90;99.90
10873;DHT22;34586;53.616;10.032;2023-11-22T05:52:45;1.00;99.90
10873;DHT22;34586;53.616;10.032;2023-11-22T05:55:11;0.90;99.90
10873;DHT22;34586;53.616;10.032;2023-11-22T05:57:40;0.90;99.90
10873;DHT22;34586;53.616;10.032;2023-11-22T06:00:06;0.90;99.90
10873;DHT22;34586;53.616;10.032;2023-11-22T06:02:32;0.90;99.90
10873;DHT22;34586;53.616;10.032;2023-11-22T06:04:58;1.00;99.90
10873;DHT22;34586;53.616;10.032;2023-11-22T06:07:24;1.00;99.90
10873;DHT22;34586;53.616;10.032;2023-11-22T06:09:49;0.90;99.90
10873;DHT22;34586;53.616;10.032;2023-11-22T06:12:15;0.90;99.90
10873;DHT22;34586;53.616;10.032;2023-11-22T06:14:40;1.00;99.90
10873;DHT22;34586;53.616;10.032;2023-11-22T06:17:07;1.00;99.90
10873;DHT22;34586;53.616;10.032;2023-11-22T06:19:32;1.00;99.90
10873;DHT22;34586;53.616;10.032;2023-11-22T06:21:58;1.00;99.90
10873;DHT22;34586;53.616;10.032;2023-11-22T06:24:23;1.00;99.90
10873;DHT22;34586;53.616;10.032;2023-11-22T06:26:51;1.00;99.90
10873;DHT22;34586;53.616;10.032;2023-11-22T06:29:16;1.00;99.90
10873;DHT22;34586;53.616;10.032;2023-11-22T06:31:42;1.10;99.90
10873;DHT22;34586;53.616;10.032;2023-11-22T06:34:08;1.10;99.90
10873;DHT22;34586;53.616;10.032;2023-11-22T06:36:34;1.20;99.90
10873;DHT22;34586;53.616;10.032;2023-11-22T06:38:59;1.20;99.90
10873;DHT22;34586;53.616;10.032;2023-11-22T06:41:25;1.20;99.90
10873;DHT22;34586;53.616;10.032;2023-11-22T06:43:51;1.20;99.90
10873;DHT22;34586;53.616;10.032;2023-11-22T06:46:16;1.30;99.90
10873;DHT22;34586;53.616;10.032;2023-11-22T06:48:42;1.30;99.90
10873;DHT22;34586;53.616;10.032;2023-11-22T06:51:14;1.30;99.90
10873;DHT22;34586;53.616;10.032;2023-11-22T06:53:39;1.30;99.90
10873;DHT22;34586;53.616;10.032;2023-11-22T06:56:05;1.40;99.90
10873;DHT22;34586;53.616;10.032;2023-11-22T06:58:31;1.50;99.90
10873;DHT22;34586;53.616;10.032;2023-11-22T07:00:56;1.50;99.90
10873;DHT22;34586;53.616;10.032;2023-11-22T07:03:22;1.50;99.90
10873;DHT22;34586;53.616;10.032;2023-11-22T07:05:47;1.60;99.90
10873;DHT22;34586;53.616;10.032;2023-11-22T07:08:13;1.60;99.90
10873;DHT22;34586;53.616;10.032;2023-11-22T07:10:41;1.60;99.90
10873;DHT22;34586;53.616;10.032;2023-11-22T07:13:07;1.70;99.90
10873;DHT22;34586;53.616;10.032;2023-11-22T07:15:33;1.70;99.90
10873;DHT22;34586;53.616;10.032;2023-11-22T07:17:59;1.80;99.90
10873;DHT22;34586;53.616;10.032;2023-11-22T07:20:24;1.80;99.90
10873;DHT22;34586;53.616;10.032;2023-11-22T07:22:52;1.80;99.90
10873;DHT22;34586;53.616;10.032;2023-11-22T07:25:21;1.90;99.90
10873;DHT22;34586;53.616;10.032;2023-11-22T07:27:51;1.90;99.90
10873;DHT22;34586;53.616;10.032;2023-11-22T07:30:16;1.90;99.90
10873;DHT22;34586;53.616;10.032;2023-11-22T07:32:44;2.00;99.90
10873;DHT22;34586;53.616;10.032;2023-11-22T07:35:10;2.00;99.90
10873;DHT22;34586;53.616;10.032;2023-11-22T07:37:37;2.10;99.90
10873;DHT22;34586;53.616;10.032;2023-11-22T07:40:08;2.10;99.90
10873;DHT22;34586;53.616;10.032;2023-11-22T07:42:35;2.10;99.90
10873;DHT22;34586;53.616;10.032;2023-11-22T07:45:01;2.10;99.90
10873;DHT22;34586;53.616;10.032;2023-11-22T07:47:27;2.20;99.90
10873;DHT22;34586;53.616;10.032;2023-11-22T07:49:54;2.20;99.90
10873;DHT22;34586;53.616;10.032;2023-11-22T07:52:21;2.20;99.90
10873;DHT22;34586;53.616;10.032;2023-11-22T07:54:47;2.20;99.90
10873;DHT22;34586;53.616;10.032;2023-11-22T07:57:13;2.20;99.90
10873;DHT22;34586;53.616;10.032;2023-11-22T07:59:39;2.20;99.90
10873;DHT22;34586;53.616;10.032;2023-11-22T08:02:05;2.20;99.90
10873;DHT22;34586;53.616;10.032;2023-11-22T08:04:36;2.20;99.90
10873;DHT22;34586;53.616;10.032;2023-11-22T08:07:03;2.20;99.90
10873;DHT22;34586;53.616;10.032;2023-11-22T08:09:29;2.20;99.90
10873;DHT22;34586;53.616;10.032;2023-11-22T08:11:58;2.30;99.90
10873;DHT22;34586;53.616;10.032;2023-11-22T08:14:26;2.30;99.90
10873;DHT22;34586;53.616;10.032;2023-11-22T08:16:53;2.40;99.90
10873;DHT22;34586;53.616;10.032;2023-11-22T08:19:19;2.50;99.90
10873;DHT22;34586;53.616;10.032;2023-11-22T08:21:45;2.50;99.90
10873;DHT22;34586;53.616;10.032;2023-11-22T08:24:10;2.50;99.90
10873;DHT22;34586;53.616;10.032;2023-11-22T08:26:38;2.60;99.90
10873;DHT22;34586;53.616;10.032;2023-11-22T08:29:04;2.60;99.90
10873;DHT22;34586;53.616;10.032;2023-11-22T08:31:30;2.60;99.90
10873;DHT22;34586;53.616;10.032;2023-11-22T08:33:56;2.70;99.90
10873;DHT22;34586;53.616;10.032;2023-11-22T08:36:22;2.70;99.90
10873;DHT22;34586;53.616;10.032;2023-11-22T08:38:49;2.80;99.90
10873;DHT22;34586;53.616;10.032;2023-11-22T08:41:14;2.80;99.90
10873;DHT22;34586;53.616;10.032;2023-11-22T08:43:41;2.90;99.90
10873;DHT22;34586;53.616;10.032;2023-11-22T08:46:06;3.00;99.90
10873;DHT22;34586;53.616;10.032;2023-11-22T08:48:33;3.00;99.90
10873;DHT22;34586;53.616;10.032;2023-11-22T08:51:00;3.10;99.90
10873;DHT22;34586;53.616;10.032;2023-11-22T08:53:26;3.10;99.90
10873;DHT22;34586;53.616;10.032;2023-11-22T08:55:52;3.20;99.90
10873;DHT22;34586;53.616;10.032;2023-11-22T08:58:20;3.30;99.90
10873;DHT22;34586;53.616;10.032;2023-11-22T09:00:46;3.30;99.90
10873;DHT22;34586;53.616;10.032;2023-11-22T09:03:12;3.40;99.90
10873;DHT22;34586;53.616;10.032;2023-11-22T09:05:41;3.40;99.90
10873;DHT22;34586;53.616;10.032;2023-11-22T09:08:08;3.50;99.90
10873;DHT22;34586;53.616;10.032;2023-11-22T09:10:38;3.60;99.90
10873;DHT22;34586;53.616;10.032;2023-11-22T09:13:04;3.60;99.90
10873;DHT22;34586;53.616;10.032;2023-11-22T09:15:31;3.70;99.90
10873;DHT22;34586;53.616;10.032;2023-11-22T09:17:59;3.70;99.90
10873;DHT22;34586;53.616;10.032;2023-11-22T09:20:25;3.80;99.90
10873;DHT22;34586;53.616;10.032;2023-11-22T09:22:52;3.80;99.90
10873;DHT22;34586;53.616;10.032;2023-11-22T09:25:23;3.80;99.90
10873;DHT22;34586;53.616;10.032;2023-11-22T09:27:54;3.90;99.90
10873;DHT22;34586;53.616;10.032;2023-11-22T09:30:28;4.00;99.90
10873;DHT22;34586;53.616;10.032;2023-11-22T09:33:14;4.00;99.90
10873;DHT22;34586;53.616;10.032;2023-11-22T09:35:41;4.10;99.90
10873;DHT22;34586;53.616;10.032;2023-11-22T09:38:09;4.10;99.90
10873;DHT22;34586;53.616;10.032;2023-11-22T09:40:41;4.20;99.90
10873;DHT22;34586;53.616;10.032;2023-11-22T09:43:07;4.30;99.90
10873;DHT22;34586;53.616;10.032;2023-11-22T09:45:33;4.30;99.90
10873;DHT22;34586;53.616;10.032;2023-11-22T09:47:59;4.40;99.90
10873;DHT22;34586;53.616;10.032;2023-11-22T09:50:43;4.50;99.90
10873;DHT22;34586;53.616;10.032;2023-11-22T09:53:18;4.50;99.90
10873;DHT22;34586;53.616;10.032;2023-11-22T09:55:45;4.70;99.90
10873;DHT22;34586;53.616;10.032;2023-11-22T09:58:12;4.50;99.90
10873;DHT22;34586;53.616;10.032;2023-11-22T10:00:40;4.60;99.90
10873;DHT22;34586;53.616;10.032;2023-11-22T10:03:06;4.60;99.90
10873;DHT22;34586;53.616;10.032;2023-11-22T10:05:33;4.70;99.90
10873;DHT22;34586;53.616;10.032;2023-11-22T10:07:59;4.60;99.90
10873;DHT22;34586;53.616;10.032;2023-11-22T10:10:25;4.70;99.90
10873;DHT22;34586;53.616;10.032;2023-11-22T10:12:54;4.70;99.90
10873;DHT22;34586;53.616;10.032;2023-11-22T10:15:21;4.80;99.90
10873;DHT22;34586;53.616;10.032;2023-11-22T10:20:24;4.80;99.90
10873;DHT22;34586;53.616;10.032;2023-11-22T10:22:51;4.90;99.90
10873;DHT22;34586;53.616;10.032;2023-11-22T10:25:17;4.90;99.90
10873;DHT22;34586;53.616;10.032;2023-11-22T10:27:45;5.00;99.90
10873;DHT22;34586;53.616;10.032;2023-11-22T10:30:11;5.00;99.90
10873;DHT22;34586;53.616;10.032;2023-11-22T10:32:37;5.10;99.90
10873;DHT22;34586;53.616;10.032;2023-11-22T10:35:06;5.00;99.90
10873;DHT22;34586;53.616;10.032;2023-11-22T10:37:33;5.10;99.90
10873;DHT22;34586;53.616;10.032;2023-11-22T10:39:59;5.20;99.90
10873;DHT22;34586;53.616;10.032;2023-11-22T10:42:26;5.20;99.90
10873;DHT22;34586;53.616;10.032;2023-11-22T10:44:55;5.30;99.90
10873;DHT22;34586;53.616;10.032;2023-11-22T10:47:22;5.40;99.90
10873;DHT22;34586;53.616;10.032;2023-11-22T10:49:49;5.40;99.90
10873;DHT22;34586;53.616;10.032;2023-11-22T10:52:18;5.40;99.90
10873;DHT22;34586;53.616;10.032;2023-11-22T10:54:50;5.50;99.90
10873;DHT22;34586;53.616;10.032;2023-11-22T10:57:22;5.40;99.90
10873;DHT22;34586;53.616;10.032;2023-11-22T10:59:54;5.50;99.90
10873;DHT22;34586;53.616;10.032;2023-11-22T11:02:21;5.50;99.90
10873;DHT22;34586;53.616;10.032;2023-11-22T11:04:58;5.50;99.90
10873;DHT22;34586;53.616;10.032;2023-11-22T11:07:26;5.50;99.90
10873;DHT22;34586;53.616;10.032;2023-11-22T11:09:56;5.60;99.90
10873;DHT22;34586;53.616;10.032;2023-11-22T11:12:23;5.60;99.90
10873;DHT22;34586;53.616;10.032;2023-11-22T11:14:50;5.60;99.90
10873;DHT22;34586;53.616;10.032;2023-11-22T11:17:17;5.60;99.90
10873;DHT22;34586;53.616;10.032;2023-11-22T11:19:43;5.70;99.90
10873;DHT22;34586;53.616;10.032;2023-11-22T11:22:09;5.70;99.90
10873;DHT22;34586;53.616;10.032;2023-11-22T11:24:41;5.70;99.90
10873;DHT22;34586;53.616;10.032;2023-11-22T11:27:12;5.70;99.90
10873;DHT22;34586;53.616;10.032;2023-11-22T11:29:38;5.70;99.90
10873;DHT22;34586;53.616;10.032;2023-11-22T11:32:31;5.70;99.90
10873;DHT22;34586;53.616;10.032;2023-11-22T11:35:07;5.70;99.90
10873;DHT22;34586;53.616;10.032;2023-11-22T11:37:33;5.80;99.90
10873;DHT22;34586;53.616;10.032;2023-11-22T11:39:59;5.80;99.90
10873;DHT22;34586;53.616;10.032;2023-11-22T11:42:24;5.70;99.90
10873;DHT22;34586;53.616;10.032;2023-11-22T11:47:24;5.70;99.90
10873;DHT22;34586;53.616;10.032;2023-11-22T11:49:50;5.80;99.90
10873;DHT22;34586;53.616;10.032;2023-11-22T11:52:16;5.80;99.90
10873;DHT22;34586;53.616;10.032;2023-11-22T11:54:41;5.80;99.90
10873;DHT22;34586;53.616;10.032;2023-11-22T11:57:07;5.90;99.90
10873;DHT22;34586;53.616;10.032;2023-11-22T11:59:34;5.90;99.90
10873;DHT22;34586;53.616;10.032;2023-11-22T12:02:00;5.90;99.90
10873;DHT22;34586;53.616;10.032;2023-11-22T12:04:26;6.00;99.90
10873;DHT22;34586;53.616;10.032;2023-11-22T12:06:52;6.00;99.90
10873;DHT22;34586;53.616;10.032;2023-11-22T12:09:25;6.00;99.90
10873;DHT22;34586;53.616;10.032;2023-11-22T12:11:53;5.90;99.90
10873;DHT22;34586;53.616;10.032;2023-11-22T12:14:20;5.90;99.90
10873;DHT22;34586;53.616;10.032;2023-11-22T12:16:47;5.90;99.90
10873;DHT22;34586;53.616;10.032;2023-11-22T12:19:21;5.90;99.90
10873;DHT22;34586;53.616;10.032;2023-11-22T12:21:48;5.90;99.90
10873;DHT22;34586;53.616;10.032;2023-11-22T12:24:15;6.00;99.90
10873;DHT22;34586;53.616;10.032;2023-11-22T12:26:45;5.90;99.90
10873;DHT22;34586;53.616;10.032;2023-11-22T12:29:12;5.90;99.90
10873;DHT22;34586;53.616;10.032;2023-11-22T12:31:44;5.90;99.90
10873;DHT22;34586;53.616;10.032;2023-11-22T12:34:14;5.80;99.90
10873;DHT22;34586;53.616;10.032;2023-11-22T12:36:41;5.80;99.90
10873;DHT22;34586;53.616;10.032;2023-11-22T12:39:10;5.80;99.90
10873;DHT22;34586;53.616;10.032;2023-11-22T12:41:48;5.80;99.90
10873;DHT22;34586;53.616;10.032;2023-11-22T12:44:16;5.70;99.90
10873;DHT22;34586;53.616;10.032;2023-11-22T12:49:11;5.60;99.90
10873;DHT22;34586;53.616;10.032;2023-11-22T12:51:37;5.60;99.90
10873;DHT22;34586;53.616;10.032;2023-11-22T12:54:03;5.60;99.90
10873;DHT22;34586;53.616;10.032;2023-11-22T12:56:29;5.60;99.90
10873;DHT22;34586;53.616;10.032;2023-11-22T12:58:54;5.60;99.90
10873;DHT22;34586;53.616;10.032;2023-11-22T13:01:20;5.60;99.90
10873;DHT22;34586;53.616;10.032;2023-11-22T13:03:46;5.60;99.90
10873;DHT22;34586;53.616;10.032;2023-11-22T13:06:11;5.50;99.90
10873;DHT22;34586;53.616;10.032;2023-11-22T13:08:37;5.60;99.90
10873;DHT22;34586;53.616;10.032;2023-11-22T13:11:03;5.50;99.90
10873;DHT22;34586;53.616;10.032;2023-11-22T13:13:29;5.50;99.90
10873;DHT22;34586;53.616;10.032;2023-11-22T13:15:56;5.50;99.90
10873;DHT22;34586;53.616;10.032;2023-11-22T13:18:22;5.40;99.90
10873;DHT22;34586;53.616;10.032;2023-11-22T13:20:49;5.40;99.90
10873;DHT22;34586;53.616;10.032;2023-11-22T13:23:15;5.30;99.90
10873;DHT22;34586;53.616;10.032;2023-11-22T13:25:41;5.40;99.90
10873;DHT22;34586;53.616;10.032;2023-11-22T13:28:07;5.40;99.90
10873;DHT22;34586;53.616;10.032;2023-11-22T13:30:34;5.30;99.90
10873;DHT22;34586;53.616;10.032;2023-11-22T13:33:00;5.30;99.90
10873;DHT22;34586;53.616;10.032;2023-11-22T13:35:27;5.50;99.90
10873;DHT22;34586;53.616;10.032;2023-11-22T13:37:59;5.30;99.90
10873;DHT22;34586;53.616;10.032;2023-11-22T13:40:27;5.30;99.90
10873;DHT22;34586;53.616;10.032;2023-11-22T13:42:56;5.30;99.90
10873;DHT22;34586;53.616;10.032;2023-11-22T13:45:22;5.20;99.90
10873;DHT22;34586;53.616;10.032;2023-11-22T13:47:49;5.20;99.90
10873;DHT22;34586;53.616;10.032;2023-11-22T13:50:25;5.30;99.90
10873;DHT22;34586;53.616;10.032;2023-11-22T13:52:55;5.30;99.90
10873;DHT22;34586;53.616;10.032;2023-11-22T13:55:22;5.20;99.90
10873;DHT22;34586;53.616;10.032;2023-11-22T13:57:55;5.20;99.90
10873;DHT22;34586;53.616;10.032;2023-11-22T14:00:23;5.20;99.90
10873;DHT22;34586;53.616;10.032;2023-11-22T14:02:51;5.10;99.90
10873;DHT22;34586;53.616;10.032;2023-11-22T14:05:18;5.10;99.90
10873;DHT22;34586;53.616;10.032;2023-11-22T14:07:44;5.10;99.90
10873;DHT22;34586;53.616;10.032;2023-11-22T14:10:10;5.10;99.90
10873;DHT22;34586;53.616;10.032;2023-11-22T14:12:37;5.10;99.90
10873;DHT22;34586;53.616;10.032;2023-11-22T14:15:03;5.10;99.90
10873;DHT22;34586;53.616;10.032;2023-11-22T14:17:32;5.10;99.90
10873;DHT22;34586;53.616;10.032;2023-11-22T14:19:58;5.10;99.90
10873;DHT22;34586;53.616;10.032;2023-11-22T14:22:24;5.10;99.90
10873;DHT22;34586;53.616;10.032;2023-11-22T14:24:51;5.00;99.90
10873;DHT22;34586;53.616;10.032;2023-11-22T14:27:17;5.00;99.90
10873;DHT22;34586;53.616;10.032;2023-11-22T14:29:44;5.10;99.90
10873;DHT22;34586;53.616;10.032;2023-11-22T14:32:13;5.00;99.90
10873;DHT22;34586;53.616;10.032;2023-11-22T14:34:38;5.00;99.90
10873;DHT22;34586;53.616;10.032;2023-11-22T14:37:05;4.90;1.00
10873;DHT22;34586;53.616;10.032;2023-11-22T14:39:31;4.90;99.90
10873;DHT22;34586;53.616;10.032;2023-11-22T14:41:58;4.90;99.90
10873;DHT22;34586;53.616;10.032;2023-11-22T14:44:24;4.90;99.90
10873;DHT22;34586;53.616;10.032;2023-11-22T14:46:50;4.90;99.90
10873;DHT22;34586;53.616;10.032;2023-11-22T14:49:15;4.90;1.00
10873;DHT22;34586;53.616;10.032;2023-11-22T14:51:41;4.90;1.00
10873;DHT22;34586;53.616;10.032;2023-11-22T14:54:07;4.90;1.00
10873;DHT22;34586;53.616;10.032;2023-11-22T14:56:32;4.80;1.00
10873;DHT22;34586;53.616;10.032;2023-11-22T14:59:00;4.70;1.00
10873;DHT22;34586;53.616;10.032;2023-11-22T15:01:26;4.80;99.90
10873;DHT22;34586;53.616;10.032;2023-11-22T15:03:52;4.80;99.90
10873;DHT22;34586;53.616;10.032;2023-11-22T15:06:22;4.80;99.90
10873;DHT22;34586;53.616;10.032;2023-11-22T15:08:47;4.80;76.80
10873;DHT22;34586;53.616;10.032;2023-11-22T15:11:14;4.80;1.00
10873;DHT22;34586;53.616;10.032;2023-11-22T15:13:41;4.80;1.00
10873;DHT22;34586;53.616;10.032;2023-11-22T15:16:07;4.80;1.00
10873;DHT22;34586;53.616;10.032;2023-11-22T15:18:33;4.80;1.00
10873;DHT22;34586;53.616;10.032;2023-11-22T15:20:58;4.80;1.00
10873;DHT22;34586;53.616;10.032;2023-11-22T15:23:24;4.80;99.90
10873;DHT22;34586;53.616;10.032;2023-11-22T15:25:49;4.80;99.90
10873;DHT22;34586;53.616;10.032;2023-11-22T15:28:15;4.60;99.90
10873;DHT22;34586;53.616;10.032;2023-11-22T15:30:51;4.60;1.00
10873;DHT22;34586;53.616;10.032;2023-11-22T15:33:23;4.60;1.00
10873;DHT22;34586;53.616;10.032;2023-11-22T15:35:49;4.60;1.00
10873;DHT22;34586;53.616;10.032;2023-11-22T15:38:14;4.60;1.00